Data for 12/19/2010

Time Sea-Level Adjusted Pressure Absolute Pressure Temperature Relative Humidity Dew Point   
(mb) (inHg) (mb) (inHg) (C) (F) (%) (C) (F)
00:05 1008 29.77 837 24.72 -12 10.4 87 -13.7 7.3
00:10 1008 29.77 837 24.72 -12.1 10.3 88 -13.6 7.5
00:15 1008 29.77 837 24.72 -11.8 10.7 88 -13.4 7.8
00:20 1008 29.77 837 24.72 -11.8 10.7 87 -13.5 7.7
00:25 1008 29.77 837 24.72 -11.8 10.8 88 -13.4 7.8
00:30 1008 29.77 837 24.72 -11.7 10.9 87 -13.4 7.8
00:35 1008 29.77 837 24.72 -11.7 10.9 87 -13.5 7.8
00:40 1008 29.77 837 24.72 -11.8 10.9 87 -13.5 7.6
00:45 1008 29.77 837 24.72 -11.8 10.7 87 -13.5 7.7
00:50 1008 29.77 837 24.72 -11.7 10.9 87 -13.5 7.7
00:55 1008 29.77 837 24.72 -11.6 11.1 87 -13.4 7.9
01:00 1008 29.77 837 24.72 -11.7 11 86 -13.5 7.6
01:05 1008 29.77 837 24.72 -11.9 10.6 88 -13.5 7.6
01:10 1008 29.77 837 24.72 -11.9 10.5 88 -13.5 7.7
01:15 1008 29.77 837 24.72 -12 10.5 88 -13.5 7.7
01:20 1007 29.74 837 24.72 -12 10.4 89 -13.5 7.7
01:25 1007 29.74 836 24.69 -12 10.4 89 -13.5 7.7
01:30 1007 29.74 836 24.69 -12.1 10.2 89 -13.6 7.6
01:35 1007 29.74 836 24.69 -12.1 10.2 89 -13.6 7.5
01:40 1007 29.74 836 24.69 -12.1 10.3 89 -13.5 7.7
01:45 1007 29.74 836 24.69 -12 10.3 89 -13.5 7.7
01:50 1007 29.74 836 24.69 -12 10.3 88 -13.6 7.5
01:55 1007 29.74 836 24.69 -12.1 10.3 89 -13.6 7.6
02:00 1007 29.74 836 24.69 -12 10.5 89 -13.4 7.8
02:05 1007 29.74 836 24.69 -11.9 10.6 89 -13.3 8
02:10 1007 29.74 836 24.69 -11.9 10.7 89 -13.3 8.1
02:15 1007 29.74 836 24.69 -11.8 10.8 89 -13.2 8.2
02:20 1007 29.74 836 24.69 -11.6 11.2 89 -13.1 8.5
02:25 1007 29.74 837 24.72 -11.4 11.6 89 -12.9 8.8
02:30 1008 29.77 837 24.72 -11.2 11.8 88 -12.9 8.8
02:35 1008 29.77 837 24.72 -11.2 11.9 87 -12.9 8.8
02:40 1008 29.77 837 24.72 -11.1 12 87 -12.9 8.8
02:45 1008 29.77 837 24.72 -11.3 11.7 88 -12.9 8.7
02:50 1008 29.77 837 24.72 -11.4 11.5 88 -12.9 8.7
02:55 1008 29.77 837 24.72 -11.4 11.5 89 -12.9 8.7
03:00 1008 29.77 837 24.72 -11.5 11.3 89 -13 8.6
03:05 1008 29.77 837 24.72 -11.7 11 89 -13.1 8.4
03:10 1008 29.77 837 24.72 -11.7 11 90 -13.1 8.5
03:15 1008 29.77 837 24.72 -11.7 11 89 -13.1 8.4
03:20 1008 29.77 837 24.72 -11.6 11.2 89 -13 8.5
03:25 1007 29.74 837 24.72 -11.6 11.2 89 -13.1 8.5
03:30 1007 29.74 837 24.72 -11.7 11 89 -13.1 8.4
03:35 1007 29.74 837 24.72 -11.8 10.8 90 -13.1 8.4
03:40 1007 29.74 837 24.72 -11.6 11.1 89 -13.1 8.5
03:45 1007 29.74 837 24.72 -11.7 10.9 89 -13.1 8.3
03:50 1007 29.74 837 24.72 -11.9 10.7 91 -13.1 8.4
03:55 1007 29.74 836 24.69 -11.8 10.9 90 -13.1 8.5
04:00 1007 29.74 836 24.69 -11.8 10.8 90 -13.1 8.4
04:05 1007 29.74 836 24.69 -11.9 10.7 90 -13.2 8.2
04:10 1007 29.74 836 24.69 -12.1 10.2 90 -13.5 7.7
04:15 1007 29.74 836 24.69 -12.3 9.9 91 -13.5 7.6
04:20 1007 29.74 836 24.69 -12.4 9.8 91 -13.5 7.6
04:25 1007 29.74 836 24.69 -12.3 9.8 91 -13.5 7.7
04:30 1007 29.74 836 24.69 -12.2 10 91 -13.5 7.7
04:35 1007 29.74 836 24.69 -12.3 10 90 -13.6 7.6
04:40 1007 29.74 836 24.69 -12.3 9.8 90 -13.7 7.3
04:45 1006 29.71 836 24.69 -12.4 9.7 90 -13.7 7.3
04:50 1006 29.71 835 24.66 -12.6 9.2 90 -14 6.8
04:55 1006 29.71 835 24.66 -12.9 8.8 91 -14.1 6.7
05:00 1006 29.71 835 24.66 -13 8.5 90 -14.4 6.1
05:05 1006 29.71 835 24.66 -13.3 8 90 -14.6 5.7
05:10 1006 29.71 835 24.66 -13.4 7.8 90 -14.7 5.5
05:15 1006 29.71 835 24.66 -13.2 8.2 92 -14.2 6.4
05:20 1006 29.71 835 24.66 -12.9 8.7 90 -14.2 6.4
05:25 1006 29.71 835 24.66 -13.1 8.5 91 -14.3 6.3
05:30 1006 29.71 835 24.66 -12.9 8.8 90 -14.2 6.5
05:35 1006 29.71 835 24.66 -12.9 8.7 90 -14.2 6.4
05:40 1006 29.71 835 24.66 -12.9 8.7 89 -14.3 6.2
05:45 1006 29.71 835 24.66 -13 8.6 89 -14.4 6.1
05:50 1006 29.71 835 24.66 -13.2 8.3 88 -14.7 5.5
05:55 1006 29.71 835 24.66 -13.6 7.6 90 -14.9 5.2
06:00 1006 29.71 835 24.66 -13.6 7.6 90 -14.9 5.2
06:05 1006 29.71 835 24.66 -13.6 7.6 89 -15 5
06:10 1006 29.71 835 24.66 -13.7 7.4 90 -15 5
06:15 1006 29.71 835 24.66 -13.8 7.2 89 -15.2 4.6
06:20 1005 29.68 835 24.66 -13.7 7.3 90 -15.1 4.9
06:25 1005 29.68 835 24.66 -13.7 7.4 90 -14.9 5.1
06:30 1005 29.68 835 24.66 -13.8 7.2 90 -15.1 4.8
06:35 1005 29.68 835 24.66 -13.6 7.5 93 -14.5 5.9
06:40 1006 29.71 835 24.66 -13.2 8.2 92 -14.3 6.3
06:45 1006 29.71 835 24.66 -13 8.6 91 -14.2 6.4
06:50 1006 29.71 835 24.66 -13 8.5 90 -14.4 6.1
06:55 1006 29.71 835 24.66 -13.2 8.2 89 -14.6 5.6
07:00 1006 29.71 835 24.66 -13.5 7.7 88 -15.1 4.9
07:05 1006 29.71 835 24.66 -13.7 7.3 89 -15.2 4.6
07:10 1006 29.71 835 24.66 -13.8 7.2 89 -15.2 4.7
07:15 1006 29.71 835 24.66 -13.8 7.2 89 -15.2 4.6
07:20 1006 29.71 835 24.66 -13.9 7.1 91 -15.1 4.9
07:25 1005 29.68 835 24.66 -13.6 7.6 91 -14.7 5.6
07:30 1005 29.68 835 24.66 -13.4 7.9 90 -14.7 5.5
07:35 1005 29.68 835 24.66 -13.5 7.7 90 -14.8 5.4
07:40 1005 29.68 835 24.66 -13.4 7.9 90 -14.7 5.5
07:45 1005 29.68 835 24.66 -13.5 7.8 90 -14.7 5.5
07:50 1005 29.68 834 24.63 -13.5 7.7 90 -14.8 5.4
07:55 1005 29.68 834 24.63 -13.4 7.9 90 -14.7 5.5
08:00 1005 29.68 834 24.63 -13.3 8 90 -14.6 5.7
08:05 1005 29.68 834 24.63 -13.2 8.2 91 -14.4 6.1
08:10 1005 29.68 834 24.63 -13.2 8.3 91 -14.4 6.1
08:15 1005 29.68 834 24.63 -13 8.6 91 -14.2 6.5
08:20 1005 29.68 834 24.63 -13 8.7 90 -14.2 6.4
08:25 1005 29.68 834 24.63 -12.9 8.7 91 -14.2 6.5
08:30 1005 29.68 834 24.63 -12.8 8.9 91 -14 6.8
08:35 1005 29.68 834 24.63 -12.7 9.2 90 -13.9 6.9
08:40 1005 29.68 834 24.63 -12.6 9.4 91 -13.8 7.2
08:45 1005 29.68 834 24.63 -12.4 9.8 91 -13.6 7.6
08:50 1005 29.68 834 24.63 -12.1 10.3 90 -13.4 7.9
08:55 1005 29.68 834 24.63 -12 10.4 88 -13.6 7.6
09:00 1005 29.68 835 24.66 -12.2 10.1 89 -13.6 7.5
09:05 1005 29.68 835 24.66 -12.1 10.2 90 -13.5 7.8
09:10 1006 29.71 835 24.66 -11.8 10.8 89 -13.2 8.2
09:15 1005 29.68 835 24.66 -11.6 11.2 89 -13 8.7
09:20 1005 29.68 835 24.66 -11.2 11.8 89 -12.7 9.1
09:25 1005 29.68 835 24.66 -11.1 12 88 -12.7 9.1
09:30 1005 29.68 835 24.66 -11 12.3 88 -12.6 9.4
09:35 1005 29.68 835 24.66 -10.8 12.6 88 -12.4 9.7
09:40 1006 29.71 835 24.66 -10.7 12.7 88 -12.3 9.8
09:45 1006 29.71 835 24.66 -10.6 12.9 87 -12.3 9.8
09:50 1005 29.68 835 24.66 -10.4 13.2 87 -12.1 10.2
09:55 1005 29.68 835 24.66 -10.3 13.5 86 -12.1 10.2
10:00 1005 29.68 834 24.63 -10.3 13.4 87 -12.1 10.2
10:05 1005 29.68 834 24.63 -10.4 13.4 86 -12.2 10
10:10 1005 29.68 835 24.66 -10.3 13.4 87 -12.1 10.3
10:15 1005 29.68 835 24.66 -10 14 87 -11.8 10.7
10:20 1005 29.68 835 24.66 -9.8 14.4 86 -11.7 11
10:25 1005 29.68 835 24.66 -9.7 14.6 84 -11.8 10.7
10:30 1005 29.68 835 24.66 -9.8 14.5 84 -12 10.4
10:35 1005 29.68 835 24.66 -9.8 14.3 84 -12 10.4
10:40 1005 29.68 834 24.63 -9.8 14.4 85 -11.9 10.6
10:45 1005 29.68 834 24.63 -9.7 14.6 83 -12 10.4
10:50 1005 29.68 834 24.63 -9.5 14.9 84 -11.8 10.8
10:55 1005 29.68 834 24.63 -9.1 15.7 83 -11.5 11.3
11:00 1005 29.68 834 24.63 -9 15.8 81 -11.7 10.9
11:05 1005 29.68 834 24.63 -9.2 15.5 80 -12 10.5
11:10 1005 29.68 834 24.63 -9.2 15.5 82 -11.7 11
11:15 1005 29.68 834 24.63 -9 15.7 80 -12 10.5
11:20 1004 29.65 834 24.63 -9.4 15.1 81 -12.1 10.2
11:25 1004 29.65 833 24.6 -9.5 15 81 -12.1 10.2
11:30 1004 29.65 833 24.6 -9.2 15.4 80 -12.1 10.2
11:35 1004 29.65 833 24.6 -8.9 16.1 80 -11.7 10.9
11:40 1004 29.65 833 24.6 -8.3 17.1 79 -11.4 11.5
11:45 1004 29.65 833 24.6 -8.1 17.4 79 -11.2 11.8
11:50 1003 29.62 832 24.57 -7.8 18 77 -11.2 11.8
11:55 1003 29.62 832 24.57 -7.4 18.7 75 -11.1 11.9
12:00 1003 29.62 832 24.57 -7.6 18.3 75 -11.2 11.8
12:05 1003 29.62 832 24.57 -7.9 17.8 77 -11.3 11.7
12:10 1003 29.62 832 24.57 -7.3 18.9 75 -10.9 12.4
12:15 1003 29.62 832 24.57 -7.3 18.9 74 -11.2 11.9
12:20 1003 29.62 832 24.57 -7.7 18.1 76 -11.3 11.7
12:25 1003 29.62 832 24.57 -7.9 17.8 76 -11.4 11.4
12:30 1003 29.62 832 24.57 -8.2 17.3 77 -11.5 11.4
12:35 1003 29.62 832 24.57 -8.1 17.5 77 -11.4 11.6
12:40 1003 29.62 832 24.57 -8 17.6 77 -11.3 11.6
12:45 1003 29.62 832 24.57 -8 17.6 77 -11.4 11.6
12:50 1003 29.62 832 24.57 -8.1 17.3 78 -11.3 11.6
12:55 1003 29.62 832 24.57 -8.3 17 79 -11.4 11.6
13:00 1003 29.62 832 24.57 -8.3 17 76 -11.9 10.7
13:05 1003 29.62 832 24.57 -9 15.8 78 -12.2 10.1
13:10 1003 29.62 832 24.57 -9.2 15.5 82 -11.8 10.8
13:15 1003 29.62 832 24.57 -9 15.7 81 -11.7 10.9
13:20 1003 29.62 832 24.57 -8.8 16.1 78 -12.1 10.3
13:25 1002 29.59 832 24.57 -9.3 15.2 80 -12.2 10.1
13:30 1002 29.59 832 24.57 -9 15.8 80 -11.9 10.6
13:35 1002 29.59 831 24.54 -8.7 16.3 80 -11.6 11.1
13:40 1002 29.59 831 24.54 -8.6 16.5 79 -11.7 10.9
13:45 1002 29.59 831 24.54 -8.1 17.4 76 -11.6 11.1
13:50 1002 29.59 831 24.54 -7.5 18.5 76 -11.1 12
13:55 1002 29.59 831 24.54 -7.2 19 73 -11.2 11.8
14:00 1002 29.59 831 24.54 -7.8 18 76 -11.3 11.6
14:05 1002 29.59 831 24.54 -8.4 16.9 78 -11.5 11.2
14:10 1002 29.59 831 24.54 -8.2 17.2 76 -11.7 11
14:15 1002 29.59 831 24.54 -7.8 17.9 77 -11.2 11.8
14:20 1002 29.59 831 24.54 -7.6 18.4 75 -11.2 11.8
14:25 1002 29.59 831 24.54 -7.4 18.7 73 -11.4 11.5
14:30 1002 29.59 831 24.54 -7.7 18.1 75 -11.4 11.6
14:35 1002 29.59 831 24.54 -7.6 18.4 75 -11.2 11.8
14:40 1002 29.59 831 24.54 -7.9 17.7 74 -11.7 10.9
14:45 1002 29.59 831 24.54 -8.5 16.7 79 -11.6 11.1
14:50 1001 29.56 831 24.54 -8.6 16.5 79 -11.7 11
14:55 1001 29.56 831 24.54 -8.5 16.7 77 -11.8 10.8
15:00 1001 29.56 831 24.54 -8.5 16.7 79 -11.6 11.1
15:05 1002 29.59 831 24.54 -8.3 17.1 78 -11.5 11.3
15:10 1002 29.59 831 24.54 -8.3 17 78 -11.6 11.2
15:15 1001 29.56 831 24.54 -8.5 16.8 78 -11.6 11.2
15:20 1001 29.56 831 24.54 -8.4 16.9 77 -11.7 11
15:25 1001 29.56 831 24.54 -8.8 16.2 79 -11.8 10.8
15:30 1001 29.56 831 24.54 -9.2 15.4 81 -12 10.4
15:35 1001 29.56 831 24.54 -9.3 15.3 82 -11.8 10.8
15:40 1001 29.56 830 24.51 -9.1 15.7 81 -11.8 10.7
15:45 1001 29.56 830 24.51 -9.1 15.7 80 -11.9 10.6
15:50 1001 29.56 830 24.51 -9.2 15.5 81 -11.8 10.8
15:55 1001 29.56 830 24.51 -8.9 16 80 -11.8 10.8
16:00 1000 29.53 830 24.51 -8.9 15.9 80 -11.8 10.8
16:05 1000 29.53 830 24.51 -9.1 15.6 80 -11.9 10.6
16:10 1000 29.53 829 24.48 -9.3 15.4 82 -11.7 10.9
16:15 1000 29.53 829 24.48 -9.3 15.2 83 -11.7 10.9
16:20 1000 29.53 829 24.48 -9.5 14.9 83 -11.8 10.8
16:25 1000 29.53 829 24.48 -9.5 14.8 83 -11.8 10.7
16:30 1000 29.53 829 24.48 -9.4 15.2 82 -11.8 10.7
16:35 1000 29.53 829 24.48 -9.2 15.4 81 -11.9 10.6
16:40 1000 29.53 829 24.48 -9.2 15.4 82 -11.8 10.8
16:45 1000 29.53 829 24.48 -9.3 15.3 83 -11.7 11
16:50 1000 29.53 829 24.48 -9.3 15.2 83 -11.7 11
16:55 1000 29.53 829 24.48 -9.2 15.5 82 -11.7 10.9
17:00 1000 29.53 829 24.48 -9 15.7 81 -11.7 11
17:05 1000 29.53 829 24.48 -9.1 15.7 81 -11.7 11
17:10 1000 29.53 829 24.48 -9.1 15.7 82 -11.7 11
17:15 1000 29.53 829 24.48 -9.4 15.1 82 -12 10.4
17:20 1000 29.53 829 24.48 -9.7 14.5 83 -12.2 10.1
17:25 1000 29.53 829 24.48 -10.2 13.7 84 -12.3 9.8
17:30 1000 29.53 829 24.48 -10.3 13.6 85 -12.3 9.8
17:35 1000 29.53 829 24.48 -10.1 13.8 85 -12.1 10.2
17:40 999 29.5 829 24.48 -10 14 83 -12.4 9.8
17:45 999 29.5 829 24.48 -10.4 13.4 86 -12.3 9.8
17:50 999 29.5 828 24.45 -10 14 84 -12.3 9.9
17:55 999 29.5 828 24.45 -9.2 15.4 81 -12 10.5
18:00 999 29.5 828 24.45 -9 15.7 81 -11.8 10.8
18:05 998 29.47 828 24.45 -9 15.7 80 -11.9 10.6
18:10 998 29.47 827 24.42 -9.2 15.4 81 -11.9 10.6
18:15 998 29.47 827 24.42 -9.4 15.1 82 -12 10.5
18:20 998 29.47 827 24.42 -9.4 15.1 82 -11.9 10.5
18:25 998 29.47 827 24.42 -9.3 15.2 82 -11.9 10.6
18:30 998 29.47 827 24.42 -9.3 15.3 82 -11.9 10.7
18:35 998 29.47 827 24.42 -9.4 15.1 83 -11.8 10.8
18:40 998 29.47 827 24.42 -9.5 15 84 -11.7 10.9
18:45 997 29.44 827 24.42 -9.5 14.8 85 -11.6 11
18:50 997 29.44 827 24.42 -9.4 15 84 -11.6 11.1
18:55 998 29.47 827 24.42 -9.5 14.9 85 -11.6 11.2
19:00 998 29.47 827 24.42 -9.5 14.8 85 -11.7 11
19:05 998 29.47 827 24.42 -9.6 14.7 84 -11.8 10.7
19:10 998 29.47 827 24.42 -9.6 14.7 84 -11.8 10.7
19:15 998 29.47 827 24.42 -9.6 14.8 84 -11.8 10.7
19:20 998 29.47 827 24.42 -9.5 15 83 -11.9 10.6
19:25 998 29.47 827 24.42 -9.4 15.1 83 -11.7 10.9
19:30 997 29.44 827 24.42 -9.4 15.1 84 -11.7 11
19:35 997 29.44 827 24.42 -9.6 14.8 84 -11.7 10.9
19:40 998 29.47 827 24.42 -9.6 14.7 85 -11.7 10.9
19:45 998 29.47 827 24.42 -9.6 14.7 85 -11.6 11
19:50 998 29.47 827 24.42 -9.6 14.8 85 -11.7 11
19:55 998 29.47 827 24.42 -9.5 15 84 -11.6 11.1
20:00 998 29.47 827 24.42 -9.4 15.1 85 -11.5 11.3
20:05 997 29.44 827 24.42 -9.3 15.3 85 -11.4 11.5
20:10 997 29.44 827 24.42 -9.1 15.6 84 -11.3 11.7
20:15 997 29.44 827 24.42 -9.1 15.6 84 -11.3 11.7
20:20 998 29.47 827 24.42 -9.1 15.7 84 -11.3 11.7
20:25 997 29.44 827 24.42 -9.1 15.6 85 -11.2 11.8
20:30 997 29.44 826 24.39 -9.2 15.5 85 -11.2 11.8
20:35 997 29.44 826 24.39 -9.3 15.3 84 -11.5 11.2
20:40 997 29.44 826 24.39 -9.3 15.2 83 -11.8 10.8
20:45 997 29.44 826 24.39 -9.3 15.4 83 -11.6 11
20:50 997 29.44 826 24.39 -9.4 15.1 86 -11.3 11.6
20:55 997 29.44 826 24.39 -9.6 14.7 88 -11.3 11.7
21:00 997 29.44 826 24.39 -9.7 14.5 89 -11.2 11.9
21:05 997 29.44 827 24.42 -9.8 14.4 90 -11.1 12
21:10 997 29.44 826 24.39 -9.8 14.4 89 -11.2 11.8
21:15 997 29.44 826 24.39 -9.7 14.6 90 -11.1 12
21:20 997 29.44 826 24.39 -9.9 14.2 91 -11.1 12
21:25 997 29.44 826 24.39 -10 14.1 88 -11.5 11.3
21:30 997 29.44 826 24.39 -10 14.1 88 -11.7 11
21:35 997 29.44 826 24.39 -10 13.9 86 -11.9 10.6
21:40 996 29.41 825 24.36 -10.2 13.7 87 -12 10.5
21:45 996 29.41 825 24.36 -10.2 13.6 87 -12 10.4
21:50 996 29.41 825 24.36 -10.3 13.4 88 -11.9 10.6
21:55 996 29.41 826 24.39 -10.3 13.4 89 -11.8 10.8
22:00 996 29.41 825 24.36 -10.3 13.4 89 -11.8 10.7
22:05 996 29.41 825 24.36 -10.3 13.4 88 -11.9 10.5
22:10 996 29.41 825 24.36 -10.3 13.5 86 -12.2 10
22:15 996 29.41 825 24.36 -10.3 13.6 86 -12.2 10
22:20 996 29.41 825 24.36 -10.2 13.7 84 -12.3 9.8
22:25 996 29.41 826 24.39 -10.1 13.9 81 -12.7 9.1
22:30 997 29.44 826 24.39 -9.9 14.1 79 -12.8 8.9
22:35 997 29.44 826 24.39 -9.8 14.3 78 -12.9 8.7
22:40 996 29.41 825 24.36 -9.7 14.5 77 -13.1 8.5
22:45 996 29.41 825 24.36 -9.7 14.5 78 -12.8 8.9
22:50 997 29.44 826 24.39 -9.6 14.7 83 -12.1 10.3
22:55 997 29.44 826 24.39 -9.6 14.7 78 -12.7 9.1
23:00 997 29.44 826 24.39 -9.5 14.9 76 -13.1 8.5
23:05 997 29.44 826 24.39 -9.5 14.8 79 -12.5 9.5
23:10 997 29.44 826 24.39 -9.6 14.7 74 -13.5 7.7
23:15 996 29.41 826 24.39 -9.7 14.6 74 -13.5 7.8
23:20 996 29.41 826 24.39 -9.6 14.7 80 -12.5 9.5
23:25 996 29.41 825 24.36 -9.8 14.3 86 -11.7 10.9
23:30 996 29.41 825 24.36 -10.1 13.8 86 -12.1 10.3
23:35 996 29.41 825 24.36 -10.1 13.8 77 -13.4 7.8
23:40 996 29.41 825 24.36 -10.3 13.5 75 -13.8 7.1
23:45 996 29.41 826 24.39 -10.4 13.2 76 -13.9 6.9
23:50 996 29.41 826 24.39 -10.5 13 77 -13.9 7
23:55 996 29.41 825 24.36 -10.5 13 77 -13.9 7
24:00 996 29.41 825 24.36 -10.5 13.1 76 -13.9 7